sensor_id;sensor_type;location;lat;lon;timestamp;pressure;altitude;pressure_sealevel;temperature;humidity
1926;BME280;964;42.606;23.588;2023-04-25T00:01:45;93810.19;;;32.14;28.96
1926;BME280;964;42.606;23.588;2023-04-25T00:04:12;93815.72;;;32.03;28.86
1926;BME280;964;42.606;23.588;2023-04-25T00:06:40;93813.44;;;30.44;30.74
1926;BME280;964;42.606;23.588;2023-04-25T00:09:07;93820.06;;;30.15;31.06
1926;BME280;964;42.606;23.588;2023-04-25T00:11:35;93821.91;;;30.51;31.32
1926;BME280;964;42.606;23.588;2023-04-25T00:14:02;93809.16;;;31.59;29.74
1926;BME280;964;42.606;23.588;2023-04-25T00:16:28;93808.19;;;32.20;29.07
1926;BME280;964;42.606;23.588;2023-04-25T00:18:58;93799.31;;;31.92;29.08
1926;BME280;964;42.606;23.588;2023-04-25T00:21:25;93793.44;;;31.77;29.47
1926;BME280;964;42.606;23.588;2023-04-25T00:23:54;93795.81;;;31.97;29.30
1926;BME280;964;42.606;23.588;2023-04-25T00:26:20;93795.78;;;32.08;29.11
1926;BME280;964;42.606;23.588;2023-04-25T00:28:47;93786.13;;;32.42;28.60
1926;BME280;964;42.606;23.588;2023-04-25T00:31:14;93787.84;;;30.80;30.61
1926;BME280;964;42.606;23.588;2023-04-25T00:33:41;93779.91;;;30.99;30.51
1926;BME280;964;42.606;23.588;2023-04-25T00:36:08;93774.13;;;31.99;29.33
1926;BME280;964;42.606;23.588;2023-04-25T00:38:35;93764.78;;;32.24;28.64
1926;BME280;964;42.606;23.588;2023-04-25T00:41:07;93753.56;;;32.28;28.75
1926;BME280;964;42.606;23.588;2023-04-25T00:43:34;93748.88;;;32.17;28.89
1926;BME280;964;42.606;23.588;2023-04-25T00:46:02;93739.41;;;31.66;29.21
1926;BME280;964;42.606;23.588;2023-04-25T00:48:29;93739.59;;;31.10;29.82
1926;BME280;964;42.606;23.588;2023-04-25T00:50:58;93740.44;;;29.68;31.60
1926;BME280;964;42.606;23.588;2023-04-25T00:53:27;93737.47;;;29.24;32.48
1926;BME280;964;42.606;23.588;2023-04-25T00:55:54;93723.13;;;29.29;32.87
1926;BME280;964;42.606;23.588;2023-04-25T00:58:22;93703.13;;;28.64;33.77
1926;BME280;964;42.606;23.588;2023-04-25T01:00:50;93710.56;;;28.32;34.38
1926;BME280;964;42.606;23.588;2023-04-25T01:03:18;93692.94;;;28.96;33.30
1926;BME280;964;42.606;23.588;2023-04-25T01:05:46;93700.34;;;29.32;32.83
1926;BME280;964;42.606;23.588;2023-04-25T01:08:13;93693.53;;;29.16;32.71
1926;BME280;964;42.606;23.588;2023-04-25T01:10:40;93691.84;;;28.45;33.24
1926;BME280;964;42.606;23.588;2023-04-25T01:13:07;93698.69;;;28.35;33.57
1926;BME280;964;42.606;23.588;2023-04-25T01:15:35;93698.50;;;28.13;33.58
1926;BME280;964;42.606;23.588;2023-04-25T01:18:03;93688.72;;;28.58;33.00
1926;BME280;964;42.606;23.588;2023-04-25T01:20:31;93677.56;;;28.61;33.15
1926;BME280;964;42.606;23.588;2023-04-25T01:23:00;93683.84;;;28.36;33.06
1926;BME280;964;42.606;23.588;2023-04-25T01:25:28;93665.50;;;29.92;30.57
1926;BME280;964;42.606;23.588;2023-04-25T01:27:55;93666.44;;;29.07;31.38
1926;BME280;964;42.606;23.588;2023-04-25T01:30:23;93659.75;;;29.79;30.45
1926;BME280;964;42.606;23.588;2023-04-25T01:32:50;93668.25;;;30.03;30.29
1926;BME280;964;42.606;23.588;2023-04-25T01:35:17;93665.97;;;30.79;29.03
1926;BME280;964;42.606;23.588;2023-04-25T01:37:44;93656.28;;;30.73;29.65
1926;BME280;964;42.606;23.588;2023-04-25T01:40:13;93655.63;;;31.30;28.28
1926;BME280;964;42.606;23.588;2023-04-25T01:42:42;93652.34;;;30.29;30.11
1926;BME280;964;42.606;23.588;2023-04-25T01:45:09;93647.00;;;31.15;29.32
1926;BME280;964;42.606;23.588;2023-04-25T01:47:37;93653.06;;;30.69;30.06
1926;BME280;964;42.606;23.588;2023-04-25T01:50:06;93645.63;;;30.36;29.67
1926;BME280;964;42.606;23.588;2023-04-25T01:52:34;93641.91;;;30.00;30.87
1926;BME280;964;42.606;23.588;2023-04-25T01:55:02;93647.13;;;31.39;28.92
1926;BME280;964;42.606;23.588;2023-04-25T01:57:30;93639.03;;;31.69;29.10
1926;BME280;964;42.606;23.588;2023-04-25T01:59:59;93641.94;;;31.30;29.14
1926;BME280;964;42.606;23.588;2023-04-25T02:02:26;93636.78;;;32.02;28.19
1926;BME280;964;42.606;23.588;2023-04-25T02:04:53;93627.72;;;32.48;28.11
1926;BME280;964;42.606;23.588;2023-04-25T02:07:21;93641.03;;;32.03;28.91
1926;BME280;964;42.606;23.588;2023-04-25T02:09:48;93639.88;;;31.52;28.96
1926;BME280;964;42.606;23.588;2023-04-25T02:12:15;93631.81;;;32.06;28.33
1926;BME280;964;42.606;23.588;2023-04-25T02:14:43;93642.06;;;30.96;29.72
1926;BME280;964;42.606;23.588;2023-04-25T02:17:10;93635.53;;;32.09;28.64
1926;BME280;964;42.606;23.588;2023-04-25T02:19:37;93640.06;;;31.60;29.12
1926;BME280;964;42.606;23.588;2023-04-25T02:22:04;93646.25;;;31.72;28.65
1926;BME280;964;42.606;23.588;2023-04-25T02:24:31;93637.25;;;32.42;28.43
1926;BME280;964;42.606;23.588;2023-04-25T02:26:59;93630.47;;;32.19;28.60
1926;BME280;964;42.606;23.588;2023-04-25T02:29:26;93635.59;;;32.33;28.36
1926;BME280;964;42.606;23.588;2023-04-25T02:31:54;93617.41;;;31.65;28.50
1926;BME280;964;42.606;23.588;2023-04-25T02:34:21;93627.88;;;31.55;28.95
1926;BME280;964;42.606;23.588;2023-04-25T02:36:48;93640.38;;;30.77;29.64
1926;BME280;964;42.606;23.588;2023-04-25T02:39:15;93632.22;;;31.34;28.76
1926;BME280;964;42.606;23.588;2023-04-25T02:41:41;93624.31;;;31.72;27.99
1926;BME280;964;42.606;23.588;2023-04-25T02:44:08;93627.38;;;30.94;28.75
1926;BME280;964;42.606;23.588;2023-04-25T02:46:35;93618.53;;;30.54;29.53
1926;BME280;964;42.606;23.588;2023-04-25T02:49:03;93626.75;;;30.32;29.86
1926;BME280;964;42.606;23.588;2023-04-25T02:51:30;93618.09;;;31.19;28.61
1926;BME280;964;42.606;23.588;2023-04-25T02:53:57;93607.09;;;31.77;28.40
1926;BME280;964;42.606;23.588;2023-04-25T02:56:24;93612.50;;;31.41;28.75
1926;BME280;964;42.606;23.588;2023-04-25T02:58:52;93618.25;;;30.69;29.49
1926;BME280;964;42.606;23.588;2023-04-25T03:01:18;93615.19;;;30.95;29.12
1926;BME280;964;42.606;23.588;2023-04-25T03:03:45;93600.88;;;30.67;29.81
1926;BME280;964;42.606;23.588;2023-04-25T03:06:13;93602.41;;;31.25;28.74
1926;BME280;964;42.606;23.588;2023-04-25T03:08:40;93617.28;;;31.35;28.29
1926;BME280;964;42.606;23.588;2023-04-25T03:11:07;93623.34;;;31.17;28.88
1926;BME280;964;42.606;23.588;2023-04-25T03:13:34;93610.34;;;31.75;28.41
1926;BME280;964;42.606;23.588;2023-04-25T03:16:00;93627.75;;;30.18;30.13
1926;BME280;964;42.606;23.588;2023-04-25T03:18:27;93623.16;;;30.93;28.91
1926;BME280;964;42.606;23.588;2023-04-25T03:20:54;93621.56;;;31.25;28.57
1926;BME280;964;42.606;23.588;2023-04-25T03:23:22;93617.69;;;31.50;28.38
1926;BME280;964;42.606;23.588;2023-04-25T03:25:48;93615.25;;;31.41;28.85
1926;BME280;964;42.606;23.588;2023-04-25T03:28:15;93618.59;;;31.70;28.23
1926;BME280;964;42.606;23.588;2023-04-25T03:30:42;93626.47;;;30.75;29.28
1926;BME280;964;42.606;23.588;2023-04-25T03:33:08;93630.47;;;29.96;30.21
1926;BME280;964;42.606;23.588;2023-04-25T03:35:35;93623.50;;;30.61;29.79
1926;BME280;964;42.606;23.588;2023-04-25T03:38:02;93624.69;;;30.83;29.18
1926;BME280;964;42.606;23.588;2023-04-25T03:40:30;93631.47;;;30.15;29.97
1926;BME280;964;42.606;23.588;2023-04-25T03:42:56;93626.72;;;30.65;29.61
1926;BME280;964;42.606;23.588;2023-04-25T03:45:23;93620.31;;;30.02;30.22
1926;BME280;964;42.606;23.588;2023-04-25T03:47:50;93627.25;;;30.14;30.05
1926;BME280;964;42.606;23.588;2023-04-25T03:50:16;93623.25;;;29.82;30.32
1926;BME280;964;42.606;23.588;2023-04-25T03:52:43;93623.78;;;30.19;30.05
1926;BME280;964;42.606;23.588;2023-04-25T03:55:10;93625.00;;;30.62;29.39
1926;BME280;964;42.606;23.588;2023-04-25T03:57:38;93623.16;;;30.98;28.90
1926;BME280;964;42.606;23.588;2023-04-25T04:00:06;93631.38;;;30.87;29.41
1926;BME280;964;42.606;23.588;2023-04-25T04:02:33;93619.25;;;31.40;29.22
1926;BME280;964;42.606;23.588;2023-04-25T04:05:01;93617.22;;;31.46;28.76
1926;BME280;964;42.606;23.588;2023-04-25T04:07:43;93612.53;;;31.82;28.49
1926;BME280;964;42.606;23.588;2023-04-25T04:10:16;93613.50;;;31.85;28.33
1926;BME280;964;42.606;23.588;2023-04-25T04:12:44;93615.94;;;31.94;28.51
1926;BME280;964;42.606;23.588;2023-04-25T04:15:11;93618.25;;;31.84;28.97
1926;BME280;964;42.606;23.588;2023-04-25T04:17:38;93615.47;;;31.49;29.20
1926;BME280;964;42.606;23.588;2023-04-25T04:20:05;93609.72;;;31.93;28.94
1926;BME280;964;42.606;23.588;2023-04-25T04:22:33;93614.69;;;32.30;28.63
1926;BME280;964;42.606;23.588;2023-04-25T04:25:00;93604.22;;;33.01;27.77
1926;BME280;964;42.606;23.588;2023-04-25T04:27:27;93612.75;;;33.22;27.91
1926;BME280;964;42.606;23.588;2023-04-25T04:29:56;93606.19;;;33.81;27.47
1926;BME280;964;42.606;23.588;2023-04-25T04:32:23;93606.63;;;33.85;26.97
1926;BME280;964;42.606;23.588;2023-04-25T04:34:50;93604.25;;;33.95;27.00
1926;BME280;964;42.606;23.588;2023-04-25T04:37:17;93613.94;;;33.64;26.96
1926;BME280;964;42.606;23.588;2023-04-25T04:39:44;93597.88;;;33.87;26.79
1926;BME280;964;42.606;23.588;2023-04-25T04:42:11;93612.00;;;33.78;26.86
1926;BME280;964;42.606;23.588;2023-04-25T04:44:38;93610.00;;;33.78;26.45
1926;BME280;964;42.606;23.588;2023-04-25T04:47:06;93617.88;;;33.69;26.58
1926;BME280;964;42.606;23.588;2023-04-25T04:49:33;93607.31;;;34.23;26.53
1926;BME280;964;42.606;23.588;2023-04-25T04:52:00;93605.00;;;34.27;26.50
1926;BME280;964;42.606;23.588;2023-04-25T04:54:26;93601.53;;;34.08;26.29
1926;BME280;964;42.606;23.588;2023-04-25T04:56:53;93602.16;;;34.01;26.57
1926;BME280;964;42.606;23.588;2023-04-25T04:59:20;93600.75;;;34.13;26.58
1926;BME280;964;42.606;23.588;2023-04-25T05:01:47;93603.59;;;33.70;26.80
1926;BME280;964;42.606;23.588;2023-04-25T05:04:15;93600.66;;;34.00;27.00
1926;BME280;964;42.606;23.588;2023-04-25T05:06:42;93606.19;;;34.32;27.03
1926;BME280;964;42.606;23.588;2023-04-25T05:09:09;93613.38;;;33.10;28.12
1926;BME280;964;42.606;23.588;2023-04-25T05:11:36;93621.81;;;32.69;28.94
1926;BME280;964;42.606;23.588;2023-04-25T05:14:02;93612.00;;;33.40;27.67
1926;BME280;964;42.606;23.588;2023-04-25T05:16:29;93631.97;;;32.20;29.12
1926;BME280;964;42.606;23.588;2023-04-25T05:18:56;93616.69;;;33.02;28.09
1926;BME280;964;42.606;23.588;2023-04-25T05:21:24;93622.09;;;33.32;28.00
1926;BME280;964;42.606;23.588;2023-04-25T05:23:50;93635.47;;;31.79;29.72
1926;BME280;964;42.606;23.588;2023-04-25T05:26:17;93615.44;;;32.79;28.79
1926;BME280;964;42.606;23.588;2023-04-25T05:28:44;93616.50;;;32.76;28.27
1926;BME280;964;42.606;23.588;2023-04-25T05:31:10;93620.66;;;32.83;28.47
1926;BME280;964;42.606;23.588;2023-04-25T05:33:38;93623.84;;;32.87;27.93
1926;BME280;964;42.606;23.588;2023-04-25T05:36:05;93624.84;;;33.08;27.61
1926;BME280;964;42.606;23.588;2023-04-25T05:38:33;93633.13;;;32.84;28.64
1926;BME280;964;42.606;23.588;2023-04-25T05:41:00;93642.88;;;31.90;29.04
1926;BME280;964;42.606;23.588;2023-04-25T05:43:27;93642.31;;;31.97;29.74
1926;BME280;964;42.606;23.588;2023-04-25T05:45:54;93642.59;;;31.52;29.96
1926;BME280;964;42.606;23.588;2023-04-25T05:48:20;93636.16;;;32.26;29.14
1926;BME280;964;42.606;23.588;2023-04-25T05:50:47;93650.53;;;32.32;28.84
1926;BME280;964;42.606;23.588;2023-04-25T05:53:14;93661.72;;;32.04;29.10
1926;BME280;964;42.606;23.588;2023-04-25T05:55:42;93656.78;;;32.63;28.50
1926;BME280;964;42.606;23.588;2023-04-25T05:58:09;93654.03;;;32.87;28.39
1926;BME280;964;42.606;23.588;2023-04-25T06:00:35;93647.50;;;32.41;29.00
1926;BME280;964;42.606;23.588;2023-04-25T06:03:02;93649.69;;;32.73;28.49
1926;BME280;964;42.606;23.588;2023-04-25T06:05:29;93647.00;;;32.91;28.39
1926;BME280;964;42.606;23.588;2023-04-25T06:07:56;93644.06;;;33.32;28.03
1926;BME280;964;42.606;23.588;2023-04-25T06:10:22;93640.91;;;33.04;27.62
1926;BME280;964;42.606;23.588;2023-04-25T06:12:51;93632.94;;;33.43;27.61
1926;BME280;964;42.606;23.588;2023-04-25T06:15:17;93638.16;;;33.47;27.61
1926;BME280;964;42.606;23.588;2023-04-25T06:17:44;93639.16;;;33.25;27.84
1926;BME280;964;42.606;23.588;2023-04-25T06:20:11;93641.22;;;33.19;28.15
1926;BME280;964;42.606;23.588;2023-04-25T06:22:38;93638.19;;;33.66;27.31
1926;BME280;964;42.606;23.588;2023-04-25T06:25:05;93636.22;;;33.61;27.42
1926;BME280;964;42.606;23.588;2023-04-25T06:27:32;93634.59;;;33.71;27.74
1926;BME280;964;42.606;23.588;2023-04-25T06:30:00;93646.38;;;33.04;28.55
1926;BME280;964;42.606;23.588;2023-04-25T06:32:27;93633.22;;;33.96;27.67
1926;BME280;964;42.606;23.588;2023-04-25T06:34:56;93630.59;;;33.72;28.05
1926;BME280;964;42.606;23.588;2023-04-25T06:37:23;93638.66;;;34.33;27.68
1926;BME280;964;42.606;23.588;2023-04-25T06:39:51;93644.41;;;32.50;29.15
1926;BME280;964;42.606;23.588;2023-04-25T06:42:17;93656.69;;;32.14;29.90
1926;BME280;964;42.606;23.588;2023-04-25T06:44:44;93651.19;;;33.22;28.52
1926;BME280;964;42.606;23.588;2023-04-25T06:47:12;93639.53;;;34.41;27.18
1926;BME280;964;42.606;23.588;2023-04-25T06:49:39;93638.81;;;34.54;27.45
1926;BME280;964;42.606;23.588;2023-04-25T06:52:07;93639.69;;;34.17;27.55
1926;BME280;964;42.606;23.588;2023-04-25T06:54:34;93634.84;;;34.23;27.08
1926;BME280;964;42.606;23.588;2023-04-25T06:57:00;93643.78;;;34.42;26.17
1926;BME280;964;42.606;23.588;2023-04-25T06:59:27;93640.88;;;34.80;26.14
1926;BME280;964;42.606;23.588;2023-04-25T07:01:54;93646.41;;;35.06;25.28
1926;BME280;964;42.606;23.588;2023-04-25T07:04:22;93640.88;;;34.80;25.50
1926;BME280;964;42.606;23.588;2023-04-25T07:06:49;93648.44;;;35.79;25.09
1926;BME280;964;42.606;23.588;2023-04-25T07:09:15;93654.06;;;36.20;24.38
1926;BME280;964;42.606;23.588;2023-04-25T07:11:42;93653.47;;;36.01;24.88
1926;BME280;964;42.606;23.588;2023-04-25T07:14:09;93649.09;;;36.40;24.85
1926;BME280;964;42.606;23.588;2023-04-25T07:16:36;93648.94;;;37.15;23.37
1926;BME280;964;42.606;23.588;2023-04-25T07:19:02;93635.97;;;37.89;23.11
1926;BME280;964;42.606;23.588;2023-04-25T07:21:30;93632.81;;;37.70;23.48
1926;BME280;964;42.606;23.588;2023-04-25T07:23:58;93641.34;;;36.04;24.57
1926;BME280;964;42.606;23.588;2023-04-25T07:26:24;93647.44;;;37.14;23.93
1926;BME280;964;42.606;23.588;2023-04-25T07:28:51;93635.50;;;37.55;23.00
1926;BME280;964;42.606;23.588;2023-04-25T07:31:18;93638.94;;;37.04;23.40
1926;BME280;964;42.606;23.588;2023-04-25T07:33:44;93631.09;;;37.52;23.19
1926;BME280;964;42.606;23.588;2023-04-25T07:36:11;93628.56;;;37.69;23.21
1926;BME280;964;42.606;23.588;2023-04-25T07:38:40;93625.69;;;37.97;22.57
1926;BME280;964;42.606;23.588;2023-04-25T07:41:06;93632.97;;;37.28;23.68
1926;BME280;964;42.606;23.588;2023-04-25T07:43:33;93633.41;;;37.04;22.78
1926;BME280;964;42.606;23.588;2023-04-25T07:45:59;93628.72;;;36.71;23.39
1926;BME280;964;42.606;23.588;2023-04-25T07:48:26;93645.00;;;35.99;24.58
1926;BME280;964;42.606;23.588;2023-04-25T07:50:53;93624.66;;;36.64;22.83
1926;BME280;964;42.606;23.588;2023-04-25T07:53:19;93634.22;;;36.43;24.30
1926;BME280;964;42.606;23.588;2023-04-25T07:55:47;93631.50;;;36.50;24.62
1926;BME280;964;42.606;23.588;2023-04-25T07:58:14;93636.38;;;36.85;23.89
1926;BME280;964;42.606;23.588;2023-04-25T08:00:46;93625.19;;;37.19;24.11
1926;BME280;964;42.606;23.588;2023-04-25T08:03:13;93624.50;;;37.70;23.13
1926;BME280;964;42.606;23.588;2023-04-25T08:05:39;93627.63;;;38.33;23.11
1926;BME280;964;42.606;23.588;2023-04-25T08:08:06;93619.75;;;37.78;22.98
1926;BME280;964;42.606;23.588;2023-04-25T08:10:33;93623.56;;;38.94;22.73
1926;BME280;964;42.606;23.588;2023-04-25T08:13:01;93623.47;;;39.24;20.79
1926;BME280;964;42.606;23.588;2023-04-25T08:15:28;93630.66;;;37.48;23.41
1926;BME280;964;42.606;23.588;2023-04-25T08:17:55;93622.25;;;38.35;22.61
1926;BME280;964;42.606;23.588;2023-04-25T08:20:21;93619.06;;;38.00;22.63
1926;BME280;964;42.606;23.588;2023-04-25T08:22:48;93623.63;;;37.90;22.85
1926;BME280;964;42.606;23.588;2023-04-25T08:25:14;93617.88;;;37.01;24.35
1926;BME280;964;42.606;23.588;2023-04-25T08:27:41;93625.28;;;37.06;23.49
1926;BME280;964;42.606;23.588;2023-04-25T08:30:10;93632.44;;;37.30;24.31
1926;BME280;964;42.606;23.588;2023-04-25T08:32:36;93626.72;;;37.00;24.28
1926;BME280;964;42.606;23.588;2023-04-25T08:35:04;93633.81;;;35.84;25.01
1926;BME280;964;42.606;23.588;2023-04-25T08:37:32;93619.91;;;36.52;24.50
1926;BME280;964;42.606;23.588;2023-04-25T08:39:58;93623.38;;;36.94;23.71
1926;BME280;964;42.606;23.588;2023-04-25T08:42:27;93612.28;;;36.86;24.11
1926;BME280;964;42.606;23.588;2023-04-25T08:44:54;93621.72;;;36.70;24.06
1926;BME280;964;42.606;23.588;2023-04-25T08:47:23;93620.53;;;38.01;22.92
1926;BME280;964;42.606;23.588;2023-04-25T08:49:53;93619.88;;;37.65;22.79
1926;BME280;964;42.606;23.588;2023-04-25T08:52:22;93596.59;;;39.90;22.37
1926;BME280;964;42.606;23.588;2023-04-25T08:54:51;93590.38;;;40.39;21.89
1926;BME280;964;42.606;23.588;2023-04-25T08:57:19;93580.41;;;41.20;20.26
1926;BME280;964;42.606;23.588;2023-04-25T08:59:47;93585.72;;;41.08;19.91
1926;BME280;964;42.606;23.588;2023-04-25T09:02:15;93571.78;;;41.59;20.65
1926;BME280;964;42.606;23.588;2023-04-25T09:04:44;93565.41;;;41.93;20.44
1926;BME280;964;42.606;23.588;2023-04-25T09:07:11;93574.91;;;41.12;20.45
1926;BME280;964;42.606;23.588;2023-04-25T09:09:40;93588.69;;;40.19;19.99
1926;BME280;964;42.606;23.588;2023-04-25T09:12:07;93591.88;;;40.40;19.89
1926;BME280;964;42.606;23.588;2023-04-25T09:14:35;93596.00;;;40.31;20.17
1926;BME280;964;42.606;23.588;2023-04-25T09:17:03;93591.66;;;39.41;20.00
1926;BME280;964;42.606;23.588;2023-04-25T09:19:31;93588.75;;;39.23;20.04
1926;BME280;964;42.606;23.588;2023-04-25T09:22:03;93606.72;;;38.01;21.66
1926;BME280;964;42.606;23.588;2023-04-25T09:24:31;93610.41;;;37.96;22.56
1926;BME280;964;42.606;23.588;2023-04-25T09:26:58;93602.09;;;39.65;20.13
1926;BME280;964;42.606;23.588;2023-04-25T09:29:29;93595.25;;;39.66;21.23
1926;BME280;964;42.606;23.588;2023-04-25T09:32:10;93597.97;;;39.41;21.23
1926;BME280;964;42.606;23.588;2023-04-25T09:34:41;93596.06;;;39.51;21.31
1926;BME280;964;42.606;23.588;2023-04-25T09:37:11;93597.97;;;37.82;22.54
1926;BME280;964;42.606;23.588;2023-04-25T09:39:38;93587.81;;;39.21;21.52
1926;BME280;964;42.606;23.588;2023-04-25T09:42:05;93589.09;;;39.75;21.07
1926;BME280;964;42.606;23.588;2023-04-25T09:44:32;93580.97;;;40.59;20.24
1926;BME280;964;42.606;23.588;2023-04-25T09:46:59;93567.78;;;41.53;19.45
1926;BME280;964;42.606;23.588;2023-04-25T09:49:25;93571.41;;;40.70;19.39
1926;BME280;964;42.606;23.588;2023-04-25T09:51:56;93574.69;;;39.21;21.11
1926;BME280;964;42.606;23.588;2023-04-25T09:54:25;93568.28;;;40.24;20.25
1926;BME280;964;42.606;23.588;2023-04-25T09:56:53;93565.09;;;40.94;20.01
1926;BME280;964;42.606;23.588;2023-04-25T09:59:21;93574.13;;;40.77;20.07
1926;BME280;964;42.606;23.588;2023-04-25T10:01:49;93557.78;;;41.50;20.35
1926;BME280;964;42.606;23.588;2023-04-25T10:04:19;93562.66;;;42.30;19.35
1926;BME280;964;42.606;23.588;2023-04-25T10:06:48;93571.53;;;40.79;19.17
1926;BME280;964;42.606;23.588;2023-04-25T10:09:16;93569.09;;;41.18;19.88
1926;BME280;964;42.606;23.588;2023-04-25T10:11:46;93579.84;;;40.62;19.08
1926;BME280;964;42.606;23.588;2023-04-25T10:14:13;93587.97;;;40.10;20.06
1926;BME280;964;42.606;23.588;2023-04-25T10:16:41;93578.84;;;39.93;19.44
1926;BME280;964;42.606;23.588;2023-04-25T10:19:09;93578.91;;;39.85;19.62
1926;BME280;964;42.606;23.588;2023-04-25T10:21:37;93584.03;;;38.10;21.27
1926;BME280;964;42.606;23.588;2023-04-25T10:24:07;93573.91;;;39.44;20.75
1926;BME280;964;42.606;23.588;2023-04-25T10:26:34;93558.56;;;38.04;22.16
1926;BME280;964;42.606;23.588;2023-04-25T10:29:03;93559.38;;;37.10;19.93
1926;BME280;964;42.606;23.588;2023-04-25T10:31:30;93550.03;;;37.87;22.18
1926;BME280;964;42.606;23.588;2023-04-25T10:33:59;93541.59;;;38.84;21.15
1926;BME280;964;42.606;23.588;2023-04-25T10:36:26;93547.88;;;38.23;22.35
1926;BME280;964;42.606;23.588;2023-04-25T10:39:03;93550.72;;;39.16;21.63
1926;BME280;964;42.606;23.588;2023-04-25T10:41:45;93552.91;;;40.89;20.33
1926;BME280;964;42.606;23.588;2023-04-25T10:44:14;93554.66;;;41.02;19.90
1926;BME280;964;42.606;23.588;2023-04-25T10:46:41;93570.88;;;39.57;19.96
1926;BME280;964;42.606;23.588;2023-04-25T10:49:10;93556.56;;;40.00;20.26
1926;BME280;964;42.606;23.588;2023-04-25T10:51:37;93551.25;;;41.21;19.13
1926;BME280;964;42.606;23.588;2023-04-25T10:54:05;93552.41;;;40.83;18.79
1926;BME280;964;42.606;23.588;2023-04-25T10:56:33;93557.28;;;40.58;19.19
1926;BME280;964;42.606;23.588;2023-04-25T10:59:08;93559.97;;;39.91;19.45
1926;BME280;964;42.606;23.588;2023-04-25T11:01:39;93562.63;;;41.49;19.53
1926;BME280;964;42.606;23.588;2023-04-25T11:04:06;93550.69;;;42.56;17.10
1926;BME280;964;42.606;23.588;2023-04-25T11:07:07;93547.38;;;42.31;19.14
1926;BME280;964;42.606;23.588;2023-04-25T11:09:39;93565.91;;;41.21;19.34
1926;BME280;964;42.606;23.588;2023-04-25T11:12:08;93570.72;;;38.92;21.25
1926;BME280;964;42.606;23.588;2023-04-25T11:14:36;93591.75;;;35.57;23.36
1926;BME280;964;42.606;23.588;2023-04-25T11:17:04;93579.63;;;35.39;23.64
1926;BME280;964;42.606;23.588;2023-04-25T11:19:32;93581.91;;;35.62;23.96
1926;BME280;964;42.606;23.588;2023-04-25T11:22:01;93584.94;;;34.98;23.30
1926;BME280;964;42.606;23.588;2023-04-25T11:24:28;93583.91;;;33.85;24.22
1926;BME280;964;42.606;23.588;2023-04-25T11:26:56;93596.19;;;33.84;24.57
1926;BME280;964;42.606;23.588;2023-04-25T11:29:26;93594.50;;;33.43;24.86
1926;BME280;964;42.606;23.588;2023-04-25T11:31:54;93598.75;;;33.95;25.05
1926;BME280;964;42.606;23.588;2023-04-25T11:34:23;93594.78;;;34.09;25.16
1926;BME280;964;42.606;23.588;2023-04-25T11:36:51;93588.16;;;34.89;25.04
1926;BME280;964;42.606;23.588;2023-04-25T11:39:18;93593.41;;;35.39;23.94
1926;BME280;964;42.606;23.588;2023-04-25T11:41:46;93592.50;;;35.58;24.42
1926;BME280;964;42.606;23.588;2023-04-25T11:44:15;93574.78;;;36.70;23.09
1926;BME280;964;42.606;23.588;2023-04-25T11:46:42;93570.75;;;38.01;22.80
1926;BME280;964;42.606;23.588;2023-04-25T11:49:08;93583.22;;;36.44;23.26
1926;BME280;964;42.606;23.588;2023-04-25T11:51:41;93575.09;;;37.74;21.78
1926;BME280;964;42.606;23.588;2023-04-25T11:54:08;93567.44;;;38.56;21.09
1926;BME280;964;42.606;23.588;2023-04-25T11:56:35;93567.66;;;39.36;20.93
1926;BME280;964;42.606;23.588;2023-04-25T11:59:03;93559.56;;;39.22;20.12
1926;BME280;964;42.606;23.588;2023-04-25T12:01:32;93552.84;;;38.86;20.11
1926;BME280;964;42.606;23.588;2023-04-25T12:04:10;93550.41;;;38.82;21.10
1926;BME280;964;42.606;23.588;2023-04-25T12:06:37;93555.97;;;38.67;20.78
1926;BME280;964;42.606;23.588;2023-04-25T12:09:08;93562.63;;;38.11;21.06
1926;BME280;964;42.606;23.588;2023-04-25T12:11:40;93553.44;;;38.39;20.87
1926;BME280;964;42.606;23.588;2023-04-25T12:14:07;93551.38;;;38.16;21.43
1926;BME280;964;42.606;23.588;2023-04-25T12:16:40;93552.81;;;37.87;20.93
1926;BME280;964;42.606;23.588;2023-04-25T12:19:08;93549.72;;;36.96;22.04
1926;BME280;964;42.606;23.588;2023-04-25T12:21:34;93550.69;;;36.21;22.94
1926;BME280;964;42.606;23.588;2023-04-25T12:24:13;93561.69;;;35.46;23.19
1926;BME280;964;42.606;23.588;2023-04-25T12:26:51;93565.25;;;35.67;23.67
1926;BME280;964;42.606;23.588;2023-04-25T12:29:22;93559.38;;;36.54;23.01
1926;BME280;964;42.606;23.588;2023-04-25T12:31:51;93560.63;;;36.73;23.67
1926;BME280;964;42.606;23.588;2023-04-25T12:34:18;93574.34;;;35.96;24.49
1926;BME280;964;42.606;23.588;2023-04-25T12:36:45;93568.03;;;35.54;24.72
1926;BME280;964;42.606;23.588;2023-04-25T12:39:17;93555.78;;;35.76;25.71
1926;BME280;964;42.606;23.588;2023-04-25T12:41:44;93549.31;;;35.39;25.71
1926;BME280;964;42.606;23.588;2023-04-25T12:44:11;93539.06;;;36.44;25.23
1926;BME280;964;42.606;23.588;2023-04-25T12:46:39;93534.38;;;35.69;25.99
1926;BME280;964;42.606;23.588;2023-04-25T12:49:06;93517.75;;;37.82;23.82
1926;BME280;964;42.606;23.588;2023-04-25T12:51:33;93515.66;;;37.45;23.17
1926;BME280;964;42.606;23.588;2023-04-25T12:54:00;93523.63;;;35.99;23.57
1926;BME280;964;42.606;23.588;2023-04-25T12:56:29;93526.25;;;37.18;22.39
1926;BME280;964;42.606;23.588;2023-04-25T12:58:56;93538.34;;;36.71;23.35
1926;BME280;964;42.606;23.588;2023-04-25T13:01:23;93544.50;;;35.53;24.53
1926;BME280;964;42.606;23.588;2023-04-25T13:03:50;93558.69;;;32.69;27.56
1926;BME280;964;42.606;23.588;2023-04-25T13:06:17;93551.44;;;32.90;27.77
1926;BME280;964;42.606;23.588;2023-04-25T13:08:44;93544.84;;;32.80;29.09
1926;BME280;964;42.606;23.588;2023-04-25T13:11:11;93554.97;;;32.42;28.02
1926;BME280;964;42.606;23.588;2023-04-25T13:13:39;93572.59;;;32.95;26.15
1926;BME280;964;42.606;23.588;2023-04-25T13:16:06;93594.22;;;32.31;28.38
1926;BME280;964;42.606;23.588;2023-04-25T13:18:33;93594.72;;;32.60;27.82
1926;BME280;964;42.606;23.588;2023-04-25T13:21:00;93599.19;;;31.68;28.42
1926;BME280;964;42.606;23.588;2023-04-25T13:23:28;93602.59;;;32.69;27.85
1926;BME280;964;42.606;23.588;2023-04-25T13:25:56;93599.94;;;33.06;27.20